createdAt,value
2023-01-22T05:01:10.641Z,0.70
2023-01-22T05:03:42.286Z,0.80
2023-01-22T05:06:13.945Z,0.00
2023-01-22T05:08:45.571Z,0.80
2023-01-22T05:11:17.368Z,0.80
2023-01-22T05:16:25.894Z,0.70
2023-01-22T05:18:57.543Z,0.70
2023-01-22T05:21:29.221Z,0.70
2023-01-22T05:24:00.861Z,0.80
2023-01-22T05:26:32.531Z,0.80
2023-01-22T05:29:04.176Z,0.80
2023-01-22T05:31:37.255Z,0.80
2023-01-22T05:34:08.918Z,0.70
2023-01-22T05:36:40.621Z,0.80
2023-01-22T05:39:12.252Z,1.00
2023-01-22T05:41:44.058Z,0.80
2023-01-22T05:44:15.702Z,0.80
2023-01-22T05:46:48.702Z,0.80
2023-01-22T05:49:20.348Z,0.80
2023-01-22T05:51:52.028Z,0.80
2023-01-22T05:54:23.722Z,0.70
2023-01-22T05:56:55.369Z,0.70
2023-01-22T05:59:27.089Z,0.80
2023-01-22T06:02:00.082Z,0.80
2023-01-22T06:04:31.733Z,0.80
2023-01-22T06:07:03.388Z,0.80
2023-01-22T06:09:35.032Z,0.80
2023-01-22T06:12:07.170Z,0.70
2023-01-22T06:14:38.796Z,0.80
2023-01-22T06:17:11.817Z,0.80
2023-01-22T06:19:43.462Z,0.80
2023-01-22T06:22:15.182Z,0.80
2023-01-22T06:24:46.836Z,0.80
2023-01-22T06:27:18.491Z,0.80
2023-01-22T06:29:50.122Z,0.70
2023-01-22T06:32:23.135Z,0.80
2023-01-22T06:34:54.783Z,0.80
2023-01-22T06:37:26.452Z,0.80
2023-01-22T06:39:58.118Z,0.80
2023-01-22T06:42:29.785Z,0.80
2023-01-22T06:45:01.426Z,0.80
2023-01-22T06:47:34.442Z,0.80
2023-01-22T06:50:06.610Z,0.80
2023-01-22T06:52:38.316Z,0.80
2023-01-22T06:55:09.980Z,0.70
2023-01-22T06:57:41.669Z,0.80
2023-01-22T07:00:14.029Z,0.80
2023-01-22T07:02:47.036Z,0.80
2023-01-22T07:05:18.684Z,0.80
2023-01-22T07:07:52.851Z,1.30
2023-01-22T07:10:24.523Z,0.80
2023-01-22T07:12:56.529Z,0.70
2023-01-22T07:15:28.241Z,0.70
2023-01-22T07:18:01.312Z,0.80
2023-01-22T07:20:32.967Z,0.70
2023-01-22T07:23:04.626Z,0.80
2023-01-22T07:25:36.273Z,0.70
2023-01-22T07:28:07.995Z,0.80
2023-01-22T07:30:39.765Z,0.80
2023-01-22T07:33:13.051Z,0.70
2023-01-22T07:35:44.915Z,0.80
2023-01-22T07:38:16.565Z,0.80
2023-01-22T07:40:48.228Z,0.90
2023-01-22T07:43:19.873Z,0.80
2023-01-22T07:45:51.574Z,0.90
2023-01-22T07:48:24.673Z,0.90
2023-01-22T07:50:59.022Z,0.90
2023-01-22T07:53:30.705Z,0.90
2023-01-22T07:56:02.410Z,0.90
2023-01-22T07:58:34.108Z,0.90
2023-01-22T08:01:06.043Z,0.90
2023-01-22T08:03:39.172Z,0.90
2023-01-22T08:06:11.603Z,0.90
2023-01-22T08:08:43.295Z,0.90
2023-01-22T08:11:15.109Z,0.90
2023-01-22T08:13:46.789Z,0.90
2023-01-22T08:16:18.475Z,1.00
2023-01-22T08:18:51.521Z,0.90
2023-01-22T08:21:23.203Z,0.90
2023-01-22T08:26:26.888Z,1.30
2023-01-22T08:28:58.606Z,1.00
2023-01-22T08:31:30.380Z,1.00
2023-01-22T08:34:03.497Z,1.00
2023-01-22T08:36:35.180Z,1.10
2023-01-22T08:39:06.827Z,1.10
2023-01-22T08:41:38.494Z,1.10
2023-01-22T08:44:12.174Z,1.10
2023-01-22T08:46:43.856Z,1.10
2023-01-22T08:49:16.894Z,1.10
2023-01-22T08:51:48.572Z,1.10
2023-01-22T08:54:20.241Z,1.20
2023-01-22T08:56:51.927Z,1.20
2023-01-22T08:59:23.868Z,1.10
2023-01-22T09:01:57.300Z,1.10
2023-01-22T09:04:30.312Z,1.20
2023-01-22T09:07:01.996Z,1.20
2023-01-22T09:09:33.649Z,1.20
2023-01-22T09:12:05.563Z,1.20
2023-01-22T09:14:37.190Z,1.20
2023-01-22T09:17:09.021Z,1.30
2023-01-22T09:19:42.029Z,1.20
2023-01-22T09:22:13.695Z,1.20
2023-01-22T09:24:45.381Z,1.40
2023-01-22T09:27:17.126Z,1.20
2023-01-22T09:29:48.771Z,1.20
2023-01-22T09:32:20.413Z,1.20
2023-01-22T09:34:53.408Z,1.00
2023-01-22T09:37:25.060Z,1.30
2023-01-22T09:39:56.712Z,1.30
2023-01-22T09:42:30.285Z,1.30
2023-01-22T09:45:04.270Z,1.30
2023-01-22T09:47:37.041Z,1.50
2023-01-22T09:50:13.909Z,1.30
2023-01-22T09:52:45.566Z,1.30
2023-01-22T09:55:18.106Z,1.30
2023-01-22T09:57:51.784Z,1.20
2023-01-22T10:00:24.416Z,1.40
2023-01-22T10:02:57.989Z,1.50
2023-01-22T10:05:32.979Z,1.50
2023-01-22T10:08:05.727Z,1.50
2023-01-22T10:10:37.377Z,1.70
2023-01-22T10:13:15.221Z,1.70
2023-01-22T10:15:47.011Z,1.70
2023-01-22T10:18:28.991Z,1.80
2023-01-22T10:21:03.468Z,1.80
2023-01-22T10:23:35.129Z,1.90
2023-01-22T10:26:14.955Z,2.70
2023-01-22T10:28:48.560Z,1.80
2023-01-22T10:31:24.107Z,1.90
2023-01-22T10:33:57.272Z,1.80
2023-01-22T10:36:30.703Z,1.80
2023-01-22T10:39:06.662Z,1.80
2023-01-22T10:41:38.310Z,1.90
2023-01-22T10:44:16.487Z,2.00
2023-01-22T10:46:48.238Z,2.00
2023-01-22T10:49:21.291Z,2.00
2023-01-22T10:51:55.983Z,1.90
2023-01-22T10:54:29.637Z,2.00
2023-01-22T10:57:05.359Z,2.00
2023-01-22T10:59:37.038Z,2.00
2023-01-22T11:02:15.020Z,2.10
2023-01-22T11:04:46.689Z,2.10
2023-01-22T11:07:20.775Z,2.10
2023-01-22T11:09:55.091Z,2.10
2023-01-22T11:12:28.756Z,2.10
2023-01-22T11:15:03.904Z,2.10
2023-01-22T11:17:37.761Z,2.20
2023-01-22T11:20:15.617Z,2.10
2023-01-22T11:22:53.854Z,2.20
2023-01-22T11:25:25.950Z,2.20
2023-01-22T11:28:02.545Z,2.30
2023-01-22T11:30:48.891Z,2.30
2023-01-22T11:33:27.684Z,2.30
2023-01-22T11:36:01.320Z,2.30
2023-01-22T11:38:38.448Z,2.30
2023-01-22T11:41:20.446Z,2.40
2023-01-22T11:44:10.466Z,2.40
2023-01-22T11:46:54.476Z,2.40
2023-01-22T11:49:31.854Z,2.40
2023-01-22T11:52:10.733Z,2.40
2023-01-22T11:55:06.545Z,2.40
2023-01-22T11:57:40.149Z,2.40
2023-01-22T12:00:27.367Z,2.30
2023-01-22T12:03:21.042Z,2.30
2023-01-22T12:05:57.965Z,2.40
2023-01-22T12:08:38.614Z,2.40
2023-01-22T12:11:16.945Z,2.30
2023-01-22T12:14:13.457Z,2.40
2023-01-22T12:16:49.958Z,2.30
2023-01-22T12:19:34.513Z,2.30
2023-01-22T12:22:08.724Z,2.30
2023-01-22T12:24:41.895Z,2.30
2023-01-22T12:27:16.088Z,2.30
2023-01-22T12:29:49.586Z,2.30
2023-01-22T12:32:21.268Z,2.30
2023-01-22T12:34:55.138Z,2.30
2023-01-22T12:37:28.887Z,2.30
2023-01-22T12:40:10.264Z,2.30
2023-01-22T12:42:45.654Z,2.30
2023-01-22T12:45:19.489Z,2.30
2023-01-22T12:47:56.425Z,2.20
2023-01-22T12:50:28.094Z,2.10
2023-01-22T12:52:59.965Z,2.30
2023-01-22T12:55:32.667Z,2.30
2023-01-22T12:58:16.287Z,2.30
2023-01-22T13:00:58.395Z,2.30
2023-01-22T13:03:32.489Z,2.30
2023-01-22T13:06:20.098Z,2.40
2023-01-22T13:08:51.772Z,2.50
2023-01-22T13:11:29.102Z,2.40
2023-01-22T13:14:15.234Z,2.40
2023-01-22T13:16:52.105Z,2.40
2023-01-22T13:19:24.861Z,2.30
2023-01-22T13:21:57.487Z,2.40
2023-01-22T13:24:29.133Z,2.30
2023-01-22T13:27:01.723Z,2.30
2023-01-22T13:29:35.568Z,2.30
2023-01-22T13:32:16.047Z,2.30
2023-01-22T13:34:47.685Z,2.30
2023-01-22T13:37:22.641Z,2.30
2023-01-22T13:39:54.285Z,2.30
2023-01-22T13:42:25.954Z,2.30
2023-01-22T13:44:58.922Z,2.30
2023-01-22T13:47:32.161Z,2.40
2023-01-22T13:50:04.284Z,2.40
2023-01-22T13:52:36.168Z,2.40
2023-01-22T13:55:12.183Z,2.40
2023-01-22T13:57:47.374Z,2.40
2023-01-22T14:00:25.397Z,2.40
2023-01-22T14:02:57.313Z,2.40
2023-01-22T14:05:29.931Z,2.40
2023-01-22T14:08:05.164Z,2.40
2023-01-22T14:10:37.051Z,2.40
2023-01-22T14:13:10.000Z,2.40
2023-01-22T14:15:42.965Z,2.30
2023-01-22T14:18:15.651Z,2.50
2023-01-22T14:20:47.654Z,2.30
2023-01-22T14:23:19.289Z,2.40
2023-01-22T14:25:51.672Z,2.50
2023-01-22T14:28:23.982Z,2.50
2023-01-22T14:30:57.032Z,2.40
2023-01-22T14:33:30.145Z,2.50
2023-01-22T14:36:01.814Z,2.40
2023-01-22T14:38:33.456Z,2.40
2023-01-22T14:41:05.376Z,2.50
2023-01-22T14:43:37.010Z,2.50
2023-01-22T14:46:10.086Z,2.50
2023-01-22T14:48:41.741Z,2.40
2023-01-22T14:53:46.301Z,2.40
2023-01-22T14:56:17.943Z,2.40
2023-01-22T14:58:49.580Z,2.40
2023-01-22T15:01:22.700Z,2.30
2023-01-22T15:03:54.381Z,2.80
2023-01-22T15:06:26.037Z,2.40
2023-01-22T15:08:57.729Z,2.30
2023-01-22T15:11:29.382Z,2.40
2023-01-22T15:14:01.014Z,2.30
2023-01-22T15:16:34.044Z,2.30
2023-01-22T15:19:05.722Z,2.30
2023-01-22T15:21:37.378Z,2.40
2023-01-22T15:24:09.326Z,2.30
2023-01-22T15:26:41.657Z,2.30
2023-01-22T15:29:13.676Z,2.30
2023-01-22T15:31:49.101Z,2.20
2023-01-22T15:34:20.784Z,2.30
2023-01-22T15:36:52.441Z,2.40
2023-01-22T15:39:24.089Z,2.90
2023-01-22T15:41:55.834Z,2.40
2023-01-22T15:44:27.486Z,2.20
2023-01-22T15:47:00.489Z,2.20
2023-01-22T15:49:32.168Z,2.30
2023-01-22T15:52:04.052Z,2.20
2023-01-22T15:54:35.680Z,2.20
2023-01-22T15:57:07.342Z,2.20
2023-01-22T15:59:38.979Z,2.20
2023-01-22T16:02:11.995Z,2.20
2023-01-22T16:04:43.690Z,2.20
2023-01-22T16:07:15.345Z,2.20
2023-01-22T16:09:46.973Z,2.10
2023-01-22T16:12:18.628Z,2.20
2023-01-22T16:14:50.247Z,2.20
2023-01-22T16:17:23.239Z,2.20
2023-01-22T16:19:54.928Z,2.20
2023-01-22T16:22:26.598Z,2.20
2023-01-22T16:24:58.234Z,2.30
2023-01-22T16:27:29.882Z,2.10
2023-01-22T16:30:01.654Z,2.20
2023-01-22T16:32:34.722Z,2.20
2023-01-22T16:35:07.050Z,2.10
2023-01-22T16:37:38.723Z,2.20
2023-01-22T16:40:11.694Z,2.20
2023-01-22T16:42:53.771Z,2.20
2023-01-22T16:45:25.422Z,2.10
2023-01-22T16:47:58.477Z,2.10
2023-01-22T16:50:30.162Z,2.20
2023-01-22T16:53:01.817Z,2.20
2023-01-22T16:55:33.456Z,2.20
2023-01-22T16:58:05.176Z,2.20
2023-01-22T17:00:36.826Z,2.60
2023-01-22T17:03:09.835Z,2.20
2023-01-22T17:05:41.517Z,2.20
2023-01-22T17:08:13.208Z,2.20
2023-01-22T17:10:44.873Z,2.20
2023-01-22T17:13:16.525Z,2.20
2023-01-22T17:15:48.191Z,2.20
2023-01-22T17:18:21.215Z,2.20
2023-01-22T17:21:01.821Z,2.20
2023-01-22T17:23:34.160Z,2.20
2023-01-22T17:26:07.003Z,2.20
2023-01-22T17:28:38.687Z,2.30
2023-01-22T17:31:12.302Z,2.30
2023-01-22T17:33:45.349Z,2.30
2023-01-22T17:36:17.417Z,2.30
2023-01-22T17:38:49.048Z,2.30
2023-01-22T17:41:21.336Z,2.30
2023-01-22T17:43:53.367Z,2.30
2023-01-22T17:46:26.340Z,2.30
2023-01-22T17:48:59.525Z,2.20
2023-01-22T17:51:32.974Z,2.20
2023-01-22T17:54:04.668Z,2.20
2023-01-22T17:56:37.410Z,2.30
2023-01-22T17:59:09.813Z,2.20
2023-01-22T18:01:41.566Z,2.20
2023-01-22T18:04:14.638Z,2.20
2023-01-22T18:06:46.320Z,2.20
2023-01-22T18:09:17.962Z,2.20
2023-01-22T18:11:49.641Z,2.20
2023-01-22T18:14:21.299Z,2.20
2023-01-22T18:16:52.985Z,2.30
2023-01-22T18:19:26.081Z,2.30
2023-01-22T18:21:57.755Z,2.30
2023-01-22T18:24:29.415Z,2.30
2023-01-22T18:27:01.075Z,2.20
2023-01-22T18:29:32.696Z,2.20
2023-01-22T18:32:04.996Z,2.30
2023-01-22T18:34:38.001Z,2.20
2023-01-22T18:37:09.670Z,2.30
2023-01-22T18:39:41.296Z,2.20
2023-01-22T18:42:12.970Z,2.30
2023-01-22T18:44:44.758Z,2.30
2023-01-22T18:49:50.685Z,2.30
2023-01-22T18:52:22.359Z,2.30
2023-01-22T18:54:53.997Z,2.30
2023-01-22T18:57:25.712Z,2.30
2023-01-22T18:59:57.375Z,2.30
2023-01-22T19:02:29.021Z,2.20
2023-01-22T19:05:02.151Z,2.30
2023-01-22T19:07:33.804Z,2.30
2023-01-22T19:10:06.497Z,2.30
2023-01-22T19:12:38.261Z,2.30
2023-01-22T19:15:10.398Z,2.30
2023-01-22T19:17:42.062Z,2.30
2023-01-22T19:20:15.387Z,2.30
2023-01-22T19:22:47.138Z,2.40
2023-01-22T19:25:19.040Z,2.30
2023-01-22T19:27:50.839Z,2.30
2023-01-22T19:30:22.689Z,2.30
2023-01-22T19:32:54.446Z,2.40
2023-01-22T19:37:59.452Z,2.40
2023-01-22T19:40:31.096Z,2.40
2023-01-22T19:43:02.815Z,2.40
2023-01-22T19:45:35.841Z,2.30
2023-01-22T19:48:07.480Z,2.30
2023-01-22T19:50:41.561Z,2.30
2023-01-22T19:53:13.367Z,2.30
2023-01-22T19:55:45.044Z,2.30
2023-01-22T19:58:16.844Z,2.30
2023-01-22T20:00:48.484Z,2.20
2023-01-22T20:03:20.239Z,2.30
2023-01-22T20:05:53.235Z,2.40
2023-01-22T20:08:24.886Z,2.40
2023-01-22T20:10:59.710Z,2.40
2023-01-22T20:13:31.561Z,2.40
2023-01-22T20:16:03.696Z,2.40
2023-01-22T20:18:35.358Z,2.40
2023-01-22T20:21:09.449Z,2.40
2023-01-22T20:23:41.070Z,2.40
2023-01-22T20:26:13.038Z,2.40
2023-01-22T20:28:44.735Z,2.40
2023-01-22T20:31:17.906Z,2.40
2023-01-22T20:33:49.833Z,2.40
2023-01-22T20:36:23.145Z,2.40
2023-01-22T20:38:54.927Z,2.40
2023-01-22T20:41:26.596Z,2.40
2023-01-22T20:43:58.271Z,2.40
2023-01-22T20:46:29.947Z,2.40
2023-01-22T20:49:01.593Z,2.30
2023-01-22T20:51:34.667Z,2.40
2023-01-22T20:54:06.310Z,2.40
2023-01-22T20:56:38.126Z,2.30
2023-01-22T20:59:11.046Z,2.40
2023-01-22T21:01:42.765Z,2.40
2023-01-22T21:04:14.506Z,2.30
2023-01-22T21:06:47.506Z,2.30
2023-01-22T21:09:19.149Z,2.30
2023-01-22T21:11:50.908Z,2.30
2023-01-22T21:14:22.548Z,2.40
2023-01-22T21:16:54.229Z,2.30
2023-01-22T21:21:59.281Z,2.40
2023-01-22T21:24:30.977Z,2.30
2023-01-22T21:27:02.784Z,2.40
2023-01-22T21:29:34.421Z,2.40
2023-01-22T21:32:06.082Z,2.30
2023-01-22T21:34:37.722Z,2.40
2023-01-22T21:37:10.698Z,2.30
2023-01-22T21:39:42.458Z,2.30
2023-01-22T21:42:14.145Z,2.30
2023-01-22T21:44:45.823Z,2.40
2023-01-22T21:47:20.110Z,2.30
2023-01-22T21:49:51.874Z,2.30
2023-01-22T21:52:24.974Z,2.30
2023-01-22T21:54:56.626Z,2.20
2023-01-22T21:57:28.312Z,2.30
2023-01-22T21:59:59.993Z,2.30
2023-01-22T22:02:31.717Z,2.40
2023-01-22T22:05:03.589Z,2.40
2023-01-22T22:07:36.620Z,2.40
2023-01-22T22:10:09.219Z,2.30
2023-01-22T22:12:40.903Z,2.30
2023-01-22T22:17:44.697Z,2.20
2023-01-22T22:20:17.285Z,2.30
2023-01-22T22:22:50.376Z,2.30
2023-01-22T22:25:22.073Z,2.30
2023-01-22T22:30:27.074Z,2.30
2023-01-22T22:32:58.739Z,2.20
2023-01-22T22:35:30.560Z,2.30
2023-01-22T22:38:03.596Z,2.30
2023-01-22T22:40:35.242Z,2.40
2023-01-22T22:43:06.903Z,2.30
2023-01-22T22:45:38.622Z,2.30
2023-01-22T22:48:10.318Z,2.30
2023-01-22T22:50:41.985Z,2.30
2023-01-22T22:53:14.999Z,2.30
2023-01-22T22:55:46.626Z,2.30
2023-01-22T22:58:18.361Z,2.30
